Time;durP1;ratioP1;P1;durP2;ratioP2;P2;SDS_P1;SDS_P2;PMS_P1;PMS_P2;Temp;Humidity;BMP_temperature;BMP_pressure;BME280_temperature;BME280_humidity;BME280_pressure;Samples;Min_cycle;Max_cycle;Signal;HPM_P1;HPM_P2
2022/10/30 00:02:05;;;;;;;18.95;6.72;;;;;;;8.71;100.00;96011.84;5014831;28;20091;-77
2022/10/30 00:04:31;;;;;;;16.90;6.63;;;;;;;8.72;100.00;96007.38;5014814;28;20049;-78
2022/10/30 00:06:56;;;;;;;19.15;6.32;;;;;;;8.65;100.00;96002.31;5032775;28;20099;-80
2022/10/30 00:09:22;;;;;;;20.27;5.78;;;;;;;8.63;100.00;96004.38;5029184;28;20479;-77
2022/10/30 00:11:47;;;;;;;20.85;6.60;;;;;;;8.60;100.00;96000.41;5030086;28;20044;-78
2022/10/30 00:14:13;;;;;;;21.25;6.40;;;;;;;8.59;100.00;95998.03;5012074;28;20561;-77
2022/10/30 00:16:38;;;;;;;20.20;6.50;;;;;;;8.54;100.00;95995.38;5031643;28;20072;-78
2022/10/30 00:19:04;;;;;;;18.60;6.57;;;;;;;8.54;100.00;95990.13;5014161;28;20041;-77
2022/10/30 00:21:29;;;;;;;18.77;6.28;;;;;;;8.57;100.00;95994.88;5032284;28;20511;-78
2022/10/30 00:23:55;;;;;;;21.63;6.40;;;;;;;8.48;100.00;95997.91;5031671;28;20064;-78
2022/10/30 00:26:22;;;;;;;18.90;5.85;;;;;;;8.48;100.00;95992.66;5028283;28;20064;-78
2022/10/30 00:28:51;;;;;;;20.98;6.15;;;;;;;8.49;100.00;95994.25;5027300;28;20408;-78
2022/10/30 00:31:17;;;;;;;24.40;6.65;;;;;;;8.49;100.00;95989.03;5032027;28;20044;-78
2022/10/30 00:33:43;;;;;;;23.70;6.13;;;;;;;8.44;100.00;95986.31;5027555;28;20041;-78
2022/10/30 00:36:08;;;;;;;19.88;5.65;;;;;;;8.42;100.00;95988.38;5008655;28;20119;-78
2022/10/30 00:38:34;;;;;;;22.35;5.60;;;;;;;8.39;100.00;95988.88;5031259;28;20526;-77
2022/10/30 00:40:59;;;;;;;21.42;5.80;;;;;;;8.37;100.00;95990.13;5028950;28;20045;-77
2022/10/30 00:43:33;;;;;;;18.75;5.68;;;;;;;8.31;100.00;95989.28;5027550;28;20045;-78
2022/10/30 00:46:05;;;;;;;18.92;5.43;;;;;;;8.35;100.00;95997.44;5012143;28;20041;-79
2022/10/30 00:48:31;;;;;;;22.55;5.57;;;;;;;8.30;100.00;95990.31;5033268;28;20093;-78
2022/10/30 00:51:00;;;;;;;17.02;5.15;;;;;;;8.38;100.00;95987.28;5043120;28;20115;-78
2022/10/30 00:53:28;;;;;;;19.17;5.22;;;;;;;8.46;100.00;95994.75;5031582;28;20033;-78
2022/10/30 00:55:58;;;;;;;27.50;6.35;;;;;;;8.54;100.00;95985.66;5031586;28;20049;-78
2022/10/30 00:58:32;;;;;;;22.17;6.68;;;;;;;8.57;100.00;95984.38;5033328;28;20048;-80
2022/10/30 01:01:02;;;;;;;17.98;6.35;;;;;;;8.46;100.00;95989.50;5013009;28;20034;-77
2022/10/30 01:03:29;;;;;;;14.82;6.20;;;;;;;8.43;100.00;95992.59;5030840;28;20045;-78
2022/10/30 01:05:59;;;;;;;13.32;5.40;;;;;;;8.45;100.00;95997.63;5030376;28;20042;-78
2022/10/30 01:08:25;;;;;;;23.13;6.20;;;;;;;8.37;100.00;95996.16;5013592;28;20403;-77
2022/10/30 01:10:51;;;;;;;16.45;5.75;;;;;;;8.32;100.00;95993.50;5031196;28;20042;-76
2022/10/30 01:13:21;;;;;;;22.70;5.40;;;;;;;8.33;100.00;95995.06;5012859;28;20053;-77
2022/10/30 01:16:00;;;;;;;21.05;5.80;;;;;;;8.26;100.00;95989.19;4996689;28;20536;-77
2022/10/30 01:18:37;;;;;;;16.63;5.43;;;;;;;8.19;100.00;95988.59;5028302;28;20041;-77
2022/10/30 01:21:32;;;;;;;35.05;6.97;;;;;;;8.07;100.00;95992.09;5030441;28;20046;-78
2022/10/30 01:24:27;;;;;;;23.95;5.85;;;;;;;7.99;100.00;95989.91;4994746;28;20060;-78
2022/10/30 01:27:31;;;;;;;28.33;6.47;;;;;;;8.11;100.00;95987.19;5033596;28;20034;-78
2022/10/30 01:30:23;;;;;;;23.35;5.88;;;;;;;8.08;100.00;95988.44;5030460;28;20044;-78
2022/10/30 01:33:13;;;;;;;21.23;6.07;;;;;;;8.01;100.00;95987.81;5032933;28;20050;-78
2022/10/30 01:35:55;;;;;;;19.52;5.63;;;;;;;7.94;100.00;95987.19;5014039;28;20051;-78
2022/10/30 01:38:30;;;;;;;19.25;6.22;;;;;;;7.95;100.00;95988.78;5033239;28;20037;-79
2022/10/30 01:40:56;;;;;;;21.23;5.97;;;;;;;7.86;100.00;95977.94;5032166;28;20045;-79
2022/10/30 01:43:21;;;;;;;15.45;5.57;;;;;;;7.86;100.00;95984.97;5025001;28;20049;-78
2022/10/30 01:45:59;;;;;;;20.52;6.03;;;;;;;7.90;100.00;95991.34;5012039;28;20041;-79
2022/10/30 01:48:43;;;;;;;21.67;6.35;;;;;;;7.85;100.00;95994.69;5030633;28;20507;-79
2022/10/30 01:51:30;;;;;;;18.23;5.63;;;;;;;7.88;100.00;95998.66;5019585;28;20571;-79
2022/10/30 01:54:07;;;;;;;23.15;5.90;;;;;;;7.83;100.00;95998.56;5031114;28;20038;-79
2022/10/30 01:57:05;;;;;;;21.27;5.68;;;;;;;7.86;100.00;96005.94;5031572;28;20045;-78
2022/10/30 01:59:37;;;;;;;24.13;6.18;;;;;;;7.75;100.00;95997.94;5027019;28;20041;-78
2022/10/30 02:02:03;;;;;;;23.88;5.82;;;;;;;7.72;100.00;95995.78;5014596;28;20041;-79
2022/10/30 02:04:29;;;;;;;21.50;5.70;;;;;;;7.69;100.00;95996.28;5031484;28;20116;-79
2022/10/30 02:06:55;;;;;;;15.82;5.88;;;;;;;7.68;100.00;96005.16;5031398;28;20041;-78
2022/10/30 02:09:21;;;;;;;16.55;5.65;;;;;;;7.68;100.00;95996.50;5029683;28;20506;-79
2022/10/30 02:11:48;;;;;;;29.80;6.30;;;;;;;7.74;100.00;95992.94;5031764;28;20116;-78
2022/10/30 02:14:20;;;;;;;21.48;5.45;;;;;;;7.68;100.00;95993.91;5031311;28;20040;-79
2022/10/30 02:16:49;;;;;;;20.70;6.28;;;;;;;7.56;100.00;95991.38;5020045;28;20041;-79
2022/10/30 02:19:15;;;;;;;21.85;5.50;;;;;;;7.54;100.00;95993.41;5031023;28;20037;-79
2022/10/30 02:21:41;;;;;;;20.63;5.15;;;;;;;7.66;100.00;95995.94;5031600;28;20645;-79
2022/10/30 02:24:06;;;;;;;23.38;6.05;;;;;;;7.58;100.00;95994.53;5029229;28;20048;-79
2022/10/30 02:26:32;;;;;;;19.45;5.57;;;;;;;7.51;100.00;95988.66;4989846;28;20052;-78
2022/10/30 02:28:57;;;;;;;17.83;5.30;;;;;;;7.52;100.00;95985.00;5011712;28;20090;-77
2022/10/30 02:31:23;;;;;;;27.85;5.13;;;;;;;7.51;100.00;95988.66;5027630;28;20041;-78
2022/10/30 02:33:48;;;;;;;14.90;5.60;;;;;;;7.48;100.00;95989.13;5029329;28;20069;-78
2022/10/30 02:36:14;;;;;;;14.27;4.72;;;;;;;7.35;100.00;95991.00;5030678;28;20395;-78
2022/10/30 02:38:40;;;;;;;26.20;5.82;;;;;;;7.35;100.00;95991.00;5022563;28;20135;-78
2022/10/30 02:41:06;;;;;;;23.65;6.72;;;;;;;7.36;100.00;95995.22;5012870;28;20037;-78
2022/10/30 02:43:32;;;;;;;17.50;5.10;;;;;;;7.33;100.00;95992.31;5029674;28;20044;-77
2022/10/30 02:45:57;;;;;;;17.00;5.25;;;;;;;7.27;100.00;95991.41;5011826;28;20045;-77
2022/10/30 02:48:23;;;;;;;19.42;5.38;;;;;;;7.24;100.00;95994.47;5029664;28;20064;-77
2022/10/30 02:50:48;;;;;;;22.10;5.78;;;;;;;7.24;100.00;95995.28;5028983;28;20048;-78
2022/10/30 02:53:13;;;;;;;18.63;5.20;;;;;;;7.19;100.00;95987.34;5028740;28;20037;-78
2022/10/30 02:55:39;;;;;;;16.30;5.05;;;;;;;7.13;100.00;95997.97;5024458;28;20049;-79
2022/10/30 02:58:04;;;;;;;18.42;5.53;;;;;;;7.18;100.00;95990.19;5028643;28;20042;-78
2022/10/30 03:00:30;;;;;;;20.73;5.50;;;;;;;7.06;100.00;95990.25;5029529;28;20045;-77
2022/10/30 03:02:56;;;;;;;27.30;5.85;;;;;;;7.04;100.00;95990.50;5028511;28;20108;-78
2022/10/30 03:05:22;;;;;;;25.02;5.22;;;;;;;7.04;100.00;96000.97;5026785;28;20061;-78
2022/10/30 03:07:48;;;;;;;18.20;4.82;;;;;;;7.07;100.00;95995.25;5029330;28;20045;-78
2022/10/30 03:10:14;;;;;;;19.58;5.22;;;;;;;6.94;100.00;95995.56;5028406;28;20029;-78
2022/10/30 03:12:39;;;;;;;22.77;5.10;;;;;;;6.94;100.00;95990.31;5029004;28;20045;-78
2022/10/30 03:15:05;;;;;;;17.25;5.10;;;;;;;6.97;100.00;95989.03;5024976;28;20044;-77
2022/10/30 03:17:31;;;;;;;18.85;5.00;;;;;;;6.93;100.00;95999.19;5011851;28;20392;-77
2022/10/30 03:19:56;;;;;;;32.00;6.40;;;;;;;6.94;100.00;96000.78;5011016;28;20041;-77
2022/10/30 03:22:22;;;;;;;18.33;5.30;;;;;;;6.89;100.00;95998.06;5010378;28;20041;-77
2022/10/30 03:24:48;;;;;;;10.18;4.30;;;;;;;6.88;100.00;96001.69;5026818;28;20050;-77
2022/10/30 03:27:13;;;;;;;19.52;5.13;;;;;;;6.88;100.00;96006.94;5011360;28;20045;-78
2022/10/30 03:29:38;;;;;;;27.15;5.47;;;;;;;6.84;100.00;96005.81;5010849;28;20053;-77
2022/10/30 03:32:08;;;;;;;31.73;5.70;;;;;;;6.80;100.00;96002.09;5028865;28;20057;-77
2022/10/30 03:34:33;;;;;;;16.55;4.85;;;;;;;6.85;100.00;95996.94;5030292;28;20056;-77
2022/10/30 03:36:59;;;;;;;22.50;5.57;;;;;;;6.78;100.00;95991.84;5030613;28;20038;-76
2022/10/30 03:39:24;;;;;;;19.75;5.15;;;;;;;6.78;100.00;95991.03;5032401;28;20419;-77
2022/10/30 03:41:50;;;;;;;19.83;5.32;;;;;;;6.75;100.00;95987.88;5033028;28;20045;-76
2022/10/30 03:44:15;;;;;;;25.17;5.03;;;;;;;6.68;100.00;95971.53;5028601;28;20095;-77
2022/10/30 03:46:41;;;;;;;15.40;5.28;;;;;;;6.75;100.00;95982.66;5032619;28;20148;-78
2022/10/30 03:49:06;;;;;;;17.85;4.78;;;;;;;6.74;100.00;95981.06;5014092;28;20415;-76
2022/10/30 03:51:32;;;;;;;17.17;5.35;;;;;;;6.74;100.00;95980.28;5032532;28;20640;-76
2022/10/30 03:53:57;;;;;;;22.20;5.50;;;;;;;6.72;100.00;95972.66;5032084;28;20037;-76
2022/10/30 03:56:23;;;;;;;15.27;4.32;;;;;;;6.75;100.00;95969.56;5005667;28;20069;-75
2022/10/30 03:58:48;;;;;;;21.55;5.35;;;;;;;6.71;100.00;95976.28;5014369;28;20495;-76
2022/10/30 04:01:14;;;;;;;15.07;5.15;;;;;;;6.78;100.00;95985.81;5031739;28;20412;-75
2022/10/30 04:03:39;;;;;;;13.10;5.15;;;;;;;6.75;100.00;95980.03;5031954;28;20514;-76
2022/10/30 04:06:06;;;;;;;18.58;5.05;;;;;;;6.89;100.00;95982.38;5032657;28;20061;-76
2022/10/30 04:08:32;;;;;;;17.27;4.97;;;;;;;6.84;100.00;95984.88;5031536;28;20651;-76
2022/10/30 04:10:58;;;;;;;19.70;5.40;;;;;;;6.78;100.00;95985.81;5032250;28;20069;-76
2022/10/30 04:13:23;;;;;;;16.35;4.80;;;;;;;6.85;100.00;95986.47;5031503;28;20041;-76
2022/10/30 04:15:50;;;;;;;19.65;5.55;;;;;;;6.81;100.00;95986.16;5027635;28;20415;-76
2022/10/30 04:18:15;;;;;;;16.38;4.85;;;;;;;6.89;100.00;95992.84;5031630;28;20065;-76
2022/10/30 04:20:42;;;;;;;20.98;5.18;;;;;;;6.77;100.00;95985.03;5013627;28;20052;-76
2022/10/30 04:23:12;;;;;;;31.35;4.90;;;;;;;6.75;100.00;95993.13;5031888;28;20037;-77
2022/10/30 04:25:38;;;;;;;17.35;5.10;;;;;;;6.74;100.00;95991.50;5030915;28;20044;-76
2022/10/30 04:28:04;;;;;;;17.50;4.80;;;;;;;6.70;100.00;95990.38;5012655;28;20042;-77
2022/10/30 04:30:34;;;;;;;19.05;6.60;;;;;;;6.67;100.00;95990.84;5031941;28;20037;-76
2022/10/30 04:33:00;;;;;;;18.60;5.53;;;;;;;6.65;100.00;95987.69;5003364;28;20041;-76
2022/10/30 04:35:28;;;;;;;25.35;5.90;;;;;;;6.76;100.00;95989.44;5029969;28;20033;-76
2022/10/30 04:38:02;;;;;;;16.63;5.40;;;;;;;6.65;100.00;95987.69;5027199;28;20041;-77
2022/10/30 04:40:32;;;;;;;17.60;5.05;;;;;;;6.67;100.00;95983.00;5031292;28;20045;-77
2022/10/30 04:42:58;;;;;;;17.13;5.15;;;;;;;6.64;100.00;95983.47;5031899;28;20042;-77
2022/10/30 04:45:24;;;;;;;16.60;5.30;;;;;;;6.65;100.00;95987.69;5013186;28;20067;-78
2022/10/30 04:47:50;;;;;;;23.58;6.05;;;;;;;6.69;100.00;95988.78;5031889;28;20095;-78
2022/10/30 04:50:17;;;;;;;29.08;5.90;;;;;;;6.61;100.00;95980.50;5028553;28;20128;-78
2022/10/30 04:52:42;;;;;;;16.30;5.35;;;;;;;6.53;100.00;95989.53;5031317;28;20042;-77
2022/10/30 04:55:09;;;;;;;22.42;6.75;;;;;;;6.50;100.00;95980.31;5028524;28;20065;-77
2022/10/30 04:57:35;;;;;;;20.05;5.20;;;;;;;6.47;100.00;95980.00;5031836;28;20044;-76
2022/10/30 05:00:03;;;;;;;17.25;5.32;;;;;;;6.48;100.00;95981.56;5025967;28;20041;-76
2022/10/30 05:02:29;;;;;;;17.40;6.45;;;;;;;6.43;100.00;95974.44;5011794;28;20505;-78
2022/10/30 05:04:55;;;;;;;14.18;5.28;;;;;;;6.47;100.00;95980.00;5030426;28;20041;-77
2022/10/30 05:07:21;;;;;;;22.38;5.47;;;;;;;6.46;100.00;95978.41;5031373;28;20172;-78
2022/10/30 05:09:46;;;;;;;13.35;5.22;;;;;;;6.47;100.00;95974.78;5011023;28;20042;-77
2022/10/30 05:12:12;;;;;;;23.35;5.57;;;;;;;6.40;100.00;95970.44;5029812;28;20045;-77
2022/10/30 05:14:37;;;;;;;25.55;5.65;;;;;;;6.44;100.00;95970.00;5014701;28;20120;-78
2022/10/30 05:17:03;;;;;;;16.45;5.28;;;;;;;6.40;100.00;95975.69;5025999;28;20042;-78
2022/10/30 05:19:28;;;;;;;16.58;5.32;;;;;;;6.34;100.00;95971.38;5005014;28;20462;-78
2022/10/30 05:21:54;;;;;;;17.58;4.97;;;;;;;6.28;100.00;95967.09;5031472;28;20045;-78
2022/10/30 05:24:19;;;;;;;19.75;5.63;;;;;;;6.32;100.00;95968.22;5008978;28;20038;-79
2022/10/30 05:26:45;;;;;;;16.42;5.28;;;;;;;6.29;100.00;95963.44;5030985;28;20102;-78
2022/10/30 05:29:11;;;;;;;20.92;5.65;;;;;;;6.28;100.00;95956.63;5024069;28;20048;-79
2022/10/30 05:31:37;;;;;;;17.33;5.07;;;;;;;6.21;100.00;95961.19;5029848;28;20041;-78
2022/10/30 05:34:03;;;;;;;16.75;5.35;;;;;;;6.21;100.00;95959.34;5024313;28;20119;-76
2022/10/30 05:36:28;;;;;;;24.50;5.00;;;;;;;6.21;100.00;95961.19;5025017;28;20088;-76
2022/10/30 05:38:54;;;;;;;18.15;5.15;;;;;;;6.19;100.00;95958.81;5029780;28;20041;-75
2022/10/30 05:41:20;;;;;;;14.73;5.15;;;;;;;6.20;100.00;95964.81;5030555;28;20052;-74
2022/10/30 05:43:45;;;;;;;22.27;5.40;;;;;;;6.16;100.00;95966.28;5031840;28;20439;-73
2022/10/30 05:46:11;;;;;;;16.83;5.07;;;;;;;6.17;100.00;95965.28;5029325;28;20095;-76
2022/10/30 05:48:36;;;;;;;23.08;5.50;;;;;;;6.14;100.00;95965.75;5011644;28;20768;-74
2022/10/30 05:51:03;;;;;;;20.70;5.57;;;;;;;6.22;100.00;95967.97;5031228;28;20033;-73
2022/10/30 05:53:29;;;;;;;17.92;5.60;;;;;;;6.23;100.00;95966.97;5009231;28;20131;-73
2022/10/30 05:55:58;;;;;;;17.80;4.93;;;;;;;6.21;100.00;95966.41;5027711;28;20810;-73
2022/10/30 05:58:24;;;;;;;25.55;5.75;;;;;;;6.16;100.00;95958.47;5028926;28;20099;-73
2022/10/30 06:00:50;;;;;;;20.27;4.97;;;;;;;6.14;100.00;95960.53;5004511;28;20049;-73
2022/10/30 06:03:16;;;;;;;20.90;5.25;;;;;;;6.18;100.00;95966.88;5029604;28;20518;-73
2022/10/30 06:05:44;;;;;;;14.02;5.28;;;;;;;6.18;100.00;95957.22;5030781;28;20063;-74
2022/10/30 06:08:10;;;;;;;17.42;6.20;;;;;;;6.19;100.00;95952.75;5030889;28;20038;-74
2022/10/30 06:10:36;;;;;;;18.40;5.22;;;;;;;6.17;100.00;95954.84;5026595;28;20053;-74
2022/10/30 06:13:05;;;;;;;18.13;4.70;;;;;;;6.21;100.00;95950.72;5030304;28;20069;-74
2022/10/30 06:15:31;;;;;;;17.52;4.70;;;;;;;6.26;100.00;95958.66;5025915;28;20037;-75
2022/10/30 06:17:58;;;;;;;15.55;5.13;;;;;;;6.31;100.00;95956.16;5030192;28;20406;-73
2022/10/30 06:20:26;;;;;;;19.15;4.60;;;;;;;6.36;100.00;95952.84;5028583;28;20073;-74
2022/10/30 06:23:07;;;;;;;15.25;4.82;;;;;;;6.39;100.00;95952.38;5028453;28;20033;-73
2022/10/30 06:25:34;;;;;;;15.68;4.65;;;;;;;6.46;100.00;95952.25;5027936;28;20047;-74
2022/10/30 06:28:00;;;;;;;15.63;5.07;;;;;;;6.50;100.00;95948.16;5029402;28;20096;-74
2022/10/30 06:30:27;;;;;;;19.38;4.63;;;;;;;6.58;100.00;95958.25;5027295;28;20037;-74
2022/10/30 06:32:59;;;;;;;17.17;5.00;;;;;;;6.54;100.00;95950.06;5026431;28;20041;-74
2022/10/30 06:35:25;;;;;;;23.98;7.32;;;;;;;6.65;100.00;95956.31;5029320;28;20048;-76
2022/10/30 06:37:52;;;;;;;23.00;6.50;;;;;;;6.80;100.00;95957.63;5009922;28;20415;-74
2022/10/30 06:40:18;;;;;;;22.67;6.07;;;;;;;6.82;100.00;95950.31;5026766;28;20045;-74
2022/10/30 06:42:45;;;;;;;14.95;5.65;;;;;;;6.85;100.00;95955.06;5026896;28;20067;-74
2022/10/30 06:45:12;;;;;;;19.50;5.15;;;;;;;6.96;100.00;95956.84;5024980;28;20091;-75
2022/10/30 06:47:38;;;;;;;18.50;5.32;;;;;;;7.01;100.00;95949.09;5026430;28;20076;-75
2022/10/30 06:50:06;;;;;;;20.85;5.13;;;;;;;7.05;100.00;95950.22;5018532;28;20575;-74
2022/10/30 06:52:32;;;;;;;21.92;5.43;;;;;;;7.16;100.00;95955.63;5029931;28;20046;-75
2022/10/30 06:54:58;;;;;;;17.95;5.13;;;;;;;7.22;100.00;95952.06;5028850;28;20068;-73
2022/10/30 06:57:23;;;;;;;18.30;5.30;;;;;;;7.27;100.00;95946.91;5030246;28;20037;-74
2022/10/30 06:59:49;;;;;;;21.17;5.75;;;;;;;7.42;100.00;95944.53;5010332;28;20044;-73
2022/10/30 07:02:15;;;;;;;16.98;5.45;;;;;;;7.49;100.00;95951.44;5029622;28;20029;-73
2022/10/30 07:04:40;;;;;;;14.43;5.32;;;;;;;7.70;100.00;95950.72;5030253;28;20049;-74
2022/10/30 07:07:06;;;;;;;19.73;6.18;;;;;;;7.76;100.00;95960.22;5035499;28;20036;-73
2022/10/30 07:09:31;;;;;;;21.25;5.25;;;;;;;7.82;100.00;95957.69;5037343;28;20045;-73
2022/10/30 07:11:57;;;;;;;18.40;5.70;;;;;;;7.93;100.00;95970.69;5036082;28;20037;-73
2022/10/30 07:14:23;;;;;;;15.70;5.63;;;;;;;8.03;100.00;95964.00;5022410;28;20045;-73
2022/10/30 07:16:48;;;;;;;16.23;5.28;;;;;;;8.20;100.00;95970.00;5024377;28;20044;-73
2022/10/30 07:19:14;;;;;;;15.60;5.53;;;;;;;8.30;100.00;95969.31;5027272;28;20033;-73
2022/10/30 07:21:39;;;;;;;17.60;5.43;;;;;;;8.32;100.00;95967.28;5011376;28;20569;-75
2022/10/30 07:24:05;;;;;;;20.10;5.13;;;;;;;8.45;100.00;95966.94;5022453;28;20119;-73
2022/10/30 07:26:32;;;;;;;23.52;6.30;;;;;;;8.65;100.00;95970.84;5028261;28;20102;-73
2022/10/30 07:28:58;;;;;;;24.73;6.72;;;;;;;8.75;100.00;95975.38;5027585;28;20093;-75
2022/10/30 07:31:23;;;;;;;20.13;6.85;;;;;;;8.75;100.00;95963.09;5034401;28;20474;-73
2022/10/30 07:33:49;;;;;;;17.48;6.72;;;;;;;8.82;100.00;95971.56;5044487;28;20044;-73
2022/10/30 07:36:14;;;;;;;25.40;8.18;;;;;;;8.87;100.00;95977.91;5028949;28;20037;-73
2022/10/30 07:38:40;;;;;;;19.98;7.20;;;;;;;8.92;100.00;95977.94;5031894;28;20045;-73
2022/10/30 07:41:05;;;;;;;18.98;7.00;;;;;;;9.00;100.00;95977.50;5026542;28;20034;-72
2022/10/30 07:43:31;;;;;;;20.38;6.38;;;;;;;9.05;100.00;95980.19;5027172;28;20044;-73
2022/10/30 07:45:56;;;;;;;17.33;7.53;;;;;;;9.18;100.00;95974.53;5027547;28;20048;-73
2022/10/30 07:48:22;;;;;;;22.33;7.28;;;;;;;9.41;100.00;95977.06;5023232;28;20559;-72
2022/10/30 07:50:47;;;;;;;18.92;6.63;;;;;;;9.48;100.00;95970.59;5026858;28;20602;-73
2022/10/30 07:53:13;;;;;;;20.38;6.18;;;;;;;9.53;100.00;95969.84;5009025;28;20033;-73
2022/10/30 07:55:41;;;;;;;22.40;6.57;;;;;;;9.64;100.00;95981.19;5027206;28;20500;-75
2022/10/30 07:58:07;;;;;;;16.25;5.25;;;;;;;9.71;100.00;95979.16;5026945;28;20042;-73
2022/10/30 08:00:32;;;;;;;24.33;6.22;;;;;;;9.80;100.00;95982.91;5028517;28;20480;-74
2022/10/30 08:02:58;;;;;;;21.95;6.07;;;;;;;9.92;100.00;95980.09;5012466;28;20411;-77
2022/10/30 08:05:24;;;;;;;19.35;5.35;;;;;;;10.02;100.00;95982.00;5031329;28;20522;-78
2022/10/30 08:07:49;;;;;;;17.98;5.97;;;;;;;10.19;100.00;95981.84;5027189;28;20041;-72
2022/10/30 08:10:15;;;;;;;25.30;5.45;;;;;;;10.26;100.00;95976.34;5026548;28;20163;-73
2022/10/30 08:12:43;;;;;;;20.00;5.22;;;;;;;10.37;100.00;95983.25;5025748;28;20388;-74
2022/10/30 08:15:09;;;;;;;24.92;5.78;;;;;;;10.61;100.00;95988.13;5025039;28;20610;-75
2022/10/30 08:17:45;;;;;;;18.75;4.55;;;;;;;10.83;100.00;95986.09;5036697;28;20418;-73
2022/10/30 08:20:13;;;;;;;24.92;5.07;;;;;;;10.96;100.00;95984.00;5044004;28;20041;-74
2022/10/30 08:22:56;;;;;;;25.92;4.93;;;;;;;11.05;100.00;95987.72;5018335;28;20041;-74
2022/10/30 08:25:24;;;;;;;18.92;4.78;;;;;;;11.19;100.00;95983.53;5030938;28;20116;-74
2022/10/30 08:27:56;;;;;;;24.15;5.78;;;;;;;11.31;100.00;95979.88;5032646;28;20487;-74
2022/10/30 08:30:24;;;;;;;29.38;6.05;;;;;;;11.46;100.00;95976.44;5037790;28;20506;-74
2022/10/30 08:32:49;;;;;;;15.70;4.05;;;;;;;11.67;100.00;95970.13;5013964;28;20076;-74
2022/10/30 08:35:15;;;;;;;27.20;5.68;;;;;;;11.88;100.00;95968.28;5024471;28;20045;-73
2022/10/30 08:37:41;;;;;;;17.13;5.10;;;;;;;12.07;100.00;95965.09;5032806;28;20041;-73
2022/10/30 08:40:09;;;;;;;22.90;4.80;;;;;;;12.19;100.00;95962.94;5030916;28;20415;-74
2022/10/30 08:42:34;;;;;;;18.98;5.57;;;;;;;12.45;100.00;95968.16;5020819;28;20049;-74
2022/10/30 08:45:00;;;;;;;23.02;4.80;;;;;;;12.64;100.00;95969.13;5036004;28;20103;-72
2022/10/30 08:47:25;;;;;;;18.08;4.28;;;;;;;12.81;100.00;95968.00;5032168;28;20037;-73
2022/10/30 08:49:50;;;;;;;22.50;5.05;;;;;;;12.98;100.00;95972.94;5034447;28;20041;-74
2022/10/30 08:52:16;;;;;;;14.55;4.57;;;;;;;13.24;100.00;95970.91;5036997;28;20042;-73
2022/10/30 08:54:41;;;;;;;18.98;4.65;;;;;;;13.43;100.00;95978.22;5026989;28;20499;-74
2022/10/30 08:57:07;;;;;;;20.60;4.60;;;;;;;13.60;100.00;95972.53;5031915;28;20044;-74
2022/10/30 08:59:33;;;;;;;18.13;4.90;;;;;;;13.82;100.00;95956.22;5015106;28;20557;-75
2022/10/30 09:01:58;;;;;;;18.27;3.85;;;;;;;14.08;100.00;95961.25;5033627;28;20042;-75
2022/10/30 09:04:24;;;;;;;13.93;4.65;;;;;;;14.27;100.00;95959.47;5026540;28;20045;-75
2022/10/30 09:06:49;;;;;;;16.63;4.45;;;;;;;14.51;100.00;95953.38;5027386;28;20052;-76
2022/10/30 09:09:15;;;;;;;19.52;4.55;;;;;;;14.64;100.00;95952.72;5015301;28;20467;-74
2022/10/30 09:11:40;;;;;;;12.73;4.15;;;;;;;14.75;100.00;95952.59;5030428;28;20047;-74
2022/10/30 09:14:06;;;;;;;19.70;4.25;;;;;;;14.96;100.00;95953.91;5025277;28;20683;-75
2022/10/30 09:16:31;;;;;;;11.80;4.10;;;;;;;15.17;100.00;95953.59;5028824;28;20043;-74
2022/10/30 09:18:57;;;;;;;19.20;4.95;;;;;;;15.11;100.00;95952.88;5003714;28;20038;-75
2022/10/30 09:21:22;;;;;;;17.92;4.57;;;;;;;15.23;100.00;95952.47;5029143;28;20116;-74
2022/10/30 09:23:47;;;;;;;19.73;4.63;;;;;;;15.44;100.00;95957.47;5028945;28;20058;-74
2022/10/30 09:26:13;;;;;;;15.73;4.45;;;;;;;15.65;100.00;95952.63;5027826;28;20041;-74
2022/10/30 09:28:38;;;;;;;18.10;5.00;;;;;;;15.91;100.00;95950.34;5027339;28;20038;-73
2022/10/30 09:31:04;;;;;;;22.00;5.00;;;;;;;16.28;100.00;95953.94;5026506;28;20061;-74
2022/10/30 09:33:29;;;;;;;24.33;5.43;;;;;;;17.13;100.00;95948.25;5028172;28;20041;-74
2022/10/30 09:35:55;;;;;;;19.10;4.07;;;;;;;18.80;100.00;95956.00;5010199;28;20037;-74
2022/10/30 09:38:21;;;;;;;20.92;4.93;;;;;;;19.04;100.00;95947.59;5035740;28;20049;-77
2022/10/30 09:41:00;;;;;;;17.80;4.93;;;;;;;19.17;100.00;95948.53;5029293;28;20041;-73
2022/10/30 09:43:44;;;;;;;19.60;4.57;;;;;;;20.19;98.51;95943.66;5029099;28;20160;-73
2022/10/30 09:46:51;;;;;;;20.93;5.50;;;;;;;21.23;92.27;95952.25;5026715;28;20037;-73
2022/10/30 09:49:24;;;;;;;19.70;4.35;;;;;;;21.11;86.11;95944.13;5026720;28;20038;-74
2022/10/30 09:52:18;;;;;;;16.58;4.78;;;;;;;21.10;88.85;95947.91;5029218;28;20707;-73
2022/10/30 09:54:54;;;;;;;33.25;4.35;;;;;;;21.76;74.53;95947.19;5028443;28;20046;-75
2022/10/30 09:58:25;;;;;;;20.30;4.90;;;;;;;22.19;69.39;95947.84;5030054;28;20033;-74
2022/10/30 10:01:24;;;;;;;21.88;4.97;;;;;;;23.23;65.17;95939.56;4986304;28;20057;-74
2022/10/30 10:04:25;;;;;;;18.45;4.88;;;;;;;23.57;57.71;95937.38;5030698;28;20086;-74
2022/10/30 10:07:01;;;;;;;26.27;5.90;;;;;;;24.82;51.98;95944.31;5025511;28;20431;-74
2022/10/30 10:09:31;;;;;;;18.30;4.07;;;;;;;24.70;54.71;95942.50;5031131;28;20052;-75
2022/10/30 10:12:07;;;;;;;26.65;5.40;;;;;;;24.68;62.63;95947.47;5032449;28;20049;-76
2022/10/30 10:14:41;;;;;;;16.15;4.30;;;;;;;24.81;51.75;95941.97;5045521;28;20072;-76
2022/10/30 10:17:12;;;;;;;23.38;5.03;;;;;;;24.71;51.29;95944.09;5030287;28;20073;-76
2022/10/30 10:19:46;;;;;;;22.02;4.80;;;;;;;24.87;51.02;95941.34;5021121;28;20064;-76
2022/10/30 10:22:20;;;;;;;;;;;;;;;25.22;51.43;95950.53;5024021;28;20045;-76
2022/10/30 10:24:46;;;;;;;23.55;6.38;;;;;;;25.57;47.79;95944.31;5011201;28;19921;-75
2022/10/30 10:27:46;;;;;;;20.60;4.57;;;;;;;25.70;48.44;95948.44;5032857;28;20029;-76
2022/10/30 10:30:16;;;;;;;26.13;5.35;;;;;;;26.48;46.11;95942.06;5023395;28;20471;-75
2022/10/30 10:33:06;;;;;;;20.05;4.88;;;;;;;26.21;48.34;95950.09;5007654;28;20049;-76
2022/10/30 10:35:35;;;;;;;21.33;4.82;;;;;;;26.42;45.79;95944.28;5026476;28;20038;-75
2022/10/30 10:38:28;;;;;;;19.05;4.93;;;;;;;26.93;39.02;95945.03;5028080;28;20063;-74
2022/10/30 10:41:05;;;;;;;18.38;4.88;;;;;;;27.82;41.21;95934.53;5025389;28;20491;-76
2022/10/30 10:43:50;;;;;;;18.80;5.25;;;;;;;28.29;37.49;95939.63;5009920;28;20091;-76
2022/10/30 10:46:40;;;;;;;21.25;4.70;;;;;;;28.17;38.85;95933.34;5026167;28;20079;-76
2022/10/30 10:49:23;;;;;;;19.23;4.95;;;;;;;27.11;37.23;95934.47;5034811;28;20037;-76
2022/10/30 10:52:09;;;;;;;18.75;4.63;;;;;;;28.42;37.38;95932.75;5016615;28;20048;-80
2022/10/30 10:54:41;;;;;;;18.30;4.80;;;;;;;29.37;32.65;95935.66;5030139;28;20095;-79
2022/10/30 10:57:15;;;;;;;20.90;5.10;;;;;;;29.26;36.26;95939.47;5037265;28;20635;-80
2022/10/30 10:59:46;;;;;;;21.08;4.70;;;;;;;28.50;36.55;95934.38;5042658;28;20056;-78
2022/10/30 11:02:28;;;;;;;20.35;4.80;;;;;;;27.56;37.33;95932.72;5042909;28;20522;-82
2022/10/30 11:05:00;;;;;;;20.33;4.60;;;;;;;29.27;36.14;95924.78;5039329;28;20091;-77
2022/10/30 11:07:31;;;;;;;27.30;5.20;;;;;;;28.67;36.21;95916.69;5020207;28;20278;-77
2022/10/30 11:09:57;;;;;;;25.38;5.88;;;;;;;27.30;38.37;95922.75;5026128;28;20056;-76
2022/10/30 11:12:30;;;;;;;19.52;5.25;;;;;;;27.34;38.39;95920.06;5031998;28;20050;-76
2022/10/30 11:15:00;;;;;;;18.58;4.63;;;;;;;26.85;40.67;95916.38;5032055;28;20049;-76
2022/10/30 11:17:40;;;;;;;19.00;5.05;;;;;;;27.42;40.29;95917.09;5010001;28;20045;-76
2022/10/30 11:20:17;;;;;;;16.65;4.22;;;;;;;26.87;39.85;95914.09;5032045;28;20048;-75
2022/10/30 11:22:49;;;;;;;14.80;4.95;;;;;;;25.65;39.37;95919.06;5035061;28;20037;-76
2022/10/30 11:25:20;;;;;;;19.80;4.63;;;;;;;25.83;40.58;95918.59;5034077;28;20041;-75
2022/10/30 11:27:48;;;;;;;19.10;4.50;;;;;;;26.76;38.71;95909.31;5015294;28;20046;-75
2022/10/30 11:30:22;;;;;;;16.98;4.90;;;;;;;27.40;35.37;95914.00;5005191;28;20573;-77
2022/10/30 11:32:49;;;;;;;12.55;4.28;;;;;;;26.35;41.48;95911.78;5038529;28;20052;-76
2022/10/30 11:35:17;;;;;;;13.00;4.57;;;;;;;26.77;41.77;95905.47;5013725;28;20041;-76